Time;durP1;ratioP1;P1;durP2;ratioP2;P2;SDS_P1;SDS_P2;PMS_P1;PMS_P2;Temp;Humidity;BMP_temperature;BMP_pressure;BME280_temperature;BME280_humidity;BME280_pressure;Samples;Min_cycle;Max_cycle;Signal;HPM_P1;HPM_P2
2023/05/31 00:02:12;;;;;;;12.38;6.60;;;13.70;99.90;;;;;;4176082;28;20176;-91
2023/05/31 00:04:17;;;;;;;8.27;6.10;;;13.70;99.90;;;;;;4177104;28;20187;-91
2023/05/31 00:06:18;;;;;;;9.25;6.75;;;13.60;99.90;;;;;;4157057;28;20189;-93
2023/05/31 00:08:21;;;;;;;9.95;6.68;;;13.60;99.90;;;;;;4178336;28;20168;-92
2023/05/31 00:10:22;;;;;;;8.55;6.15;;;13.60;99.90;;;;;;4158608;28;20243;-92
2023/05/31 00:12:25;;;;;;;10.82;6.60;;;13.50;99.90;;;;;;4158483;28;20194;-93
2023/05/31 00:14:31;;;;;;;12.05;6.70;;;13.50;99.90;;;;;;4174404;28;20172;-91
2023/05/31 00:16:50;;;;;;;9.57;6.47;;;13.40;99.90;;;;;;4158992;28;20196;-91
2023/05/31 00:18:51;;;;;;;8.68;6.63;;;13.40;99.90;;;;;;4173217;28;20231;-91
2023/05/31 00:20:52;;;;;;;9.00;7.03;;;13.40;99.90;;;;;;4159021;28;20284;-92
2023/05/31 00:22:53;;;;;;;10.48;6.72;;;13.40;99.90;;;;;;4158533;28;20185;-93
2023/05/31 00:24:55;;;;;;;11.60;6.97;;;13.30;99.90;;;;;;4160380;28;20264;-91
2023/05/31 00:26:57;;;;;;;10.77;7.00;;;13.30;99.90;;;;;;4176877;28;20187;-94
2023/05/31 00:28:58;;;;;;;9.85;6.82;;;13.30;99.90;;;;;;4177468;28;20176;-92
2023/05/31 00:31:05;;;;;;;8.75;6.45;;;13.30;99.90;;;;;;4176831;28;20173;-91
2023/05/31 00:33:08;;;;;;;14.20;6.70;;;13.30;99.90;;;;;;4177233;28;20175;-90
2023/05/31 00:35:09;;;;;;;10.15;6.90;;;13.30;99.90;;;;;;4175268;28;20664;-92
2023/05/31 00:37:16;;;;;;;9.40;6.55;;;13.20;99.90;;;;;;4156529;28;20288;-92
2023/05/31 00:39:17;;;;;;;12.02;6.68;;;13.20;99.90;;;;;;4173832;28;20203;-95
2023/05/31 00:41:42;;;;;;;9.98;6.55;;;13.20;99.90;;;;;;4161245;28;20172;-91
2023/05/31 00:43:53;;;;;;;8.55;6.50;;;13.20;99.90;;;;;;4173435;28;20196;-91
2023/05/31 00:45:56;;;;;;;8.57;6.82;;;13.20;99.90;;;;;;4176056;28;20257;-92
2023/05/31 00:47:59;;;;;;;13.00;6.97;;;13.20;99.90;;;;;;4161295;28;20189;-90
2023/05/31 00:50:00;;;;;;;9.93;6.88;;;13.20;99.90;;;;;;4159197;28;20200;-93
2023/05/31 00:52:16;;;;;;;8.65;7.22;;;13.10;99.90;;;;;;4175457;28;20187;-92
2023/05/31 00:54:22;;;;;;;8.75;6.97;;;13.20;99.90;;;;;;4157607;28;20179;-91
2023/05/31 00:56:23;;;;;;;11.20;6.97;;;13.20;99.90;;;;;;4171307;28;20200;-91
2023/05/31 00:58:28;;;;;;;12.40;7.25;;;13.10;99.90;;;;;;4143234;28;20237;-93
2023/05/31 01:00:33;;;;;;;12.13;6.90;;;13.10;99.90;;;;;;4182632;28;20148;-92
2023/05/31 01:02:43;;;;;;;9.00;6.60;;;13.10;99.90;;;;;;4156265;28;20255;-91
2023/05/31 01:04:48;;;;;;;11.18;7.15;;;13.10;99.90;;;;;;4157283;28;20180;-92
2023/05/31 01:06:51;;;;;;;9.15;6.35;;;13.10;99.90;;;;;;4176770;28;20260;-91
2023/05/31 01:09:09;;;;;;;12.73;6.80;;;13.10;99.90;;;;;;4181572;28;20158;-92
2023/05/31 01:11:55;;;;;;;9.80;6.95;;;13.20;99.90;;;;;;4156856;28;20195;-91
2023/05/31 01:14:42;;;;;;;10.20;6.90;;;13.10;99.90;;;;;;4171047;28;20710;-93
2023/05/31 01:16:54;;;;;;;9.02;7.10;;;13.10;99.90;;;;;;4094465;29;20199;-92
2023/05/31 01:19:03;;;;;;;7.72;6.93;;;13.00;99.90;;;;;;4128042;28;20641;-90
2023/05/31 01:21:10;;;;;;;8.77;6.93;;;12.90;99.90;;;;;;4157139;28;20188;-92
2023/05/31 01:23:14;;;;;;;12.32;8.27;;;12.90;99.90;;;;;;4175740;28;20245;-91
2023/05/31 01:25:39;;;;;;;10.25;7.38;;;12.80;99.90;;;;;;4176020;28;20560;-91
2023/05/31 01:27:42;;;;;;;9.20;7.35;;;12.80;99.90;;;;;;4157399;28;20168;-92
2023/05/31 01:29:45;;;;;;;11.77;7.70;;;12.70;99.90;;;;;;4173373;28;20188;-90
2023/05/31 01:31:48;;;;;;;8.43;7.15;;;12.70;99.90;;;;;;4155188;28;20526;-91
2023/05/31 01:34:12;;;;;;;12.57;7.65;;;12.70;99.90;;;;;;4175387;28;20184;-92
2023/05/31 01:36:19;;;;;;;8.85;7.53;;;12.80;99.90;;;;;;4157049;28;20712;-91
2023/05/31 01:38:48;;;;;;;11.63;7.18;;;12.70;99.90;;;;;;4173498;28;20271;-91
2023/05/31 01:41:14;;;;;;;10.95;7.63;;;12.70;99.90;;;;;;4175848;28;20184;-91
2023/05/31 01:43:33;;;;;;;9.00;7.38;;;12.70;99.90;;;;;;4156362;28;20173;-93
2023/05/31 01:45:35;;;;;;;11.60;7.85;;;12.70;99.90;;;;;;4177357;28;20196;-91
2023/05/31 01:47:43;;;;;;;13.05;7.65;;;12.70;99.90;;;;;;4174146;28;20164;-94
2023/05/31 01:49:45;;;;;;;12.57;8.25;;;12.70;99.90;;;;;;4157280;28;20169;-92
2023/05/31 01:51:46;;;;;;;13.10;8.50;;;12.70;99.90;;;;;;4157805;28;20189;-92
2023/05/31 01:53:49;;;;;;;12.15;8.43;;;12.60;99.90;;;;;;4173521;28;20677;-93
2023/05/31 01:56:16;;;;;;;15.30;7.85;;;12.60;99.90;;;;;;4173847;28;20664;-94
2023/05/31 01:58:27;;;;;;;11.32;8.57;;;12.60;99.90;;;;;;4171199;28;20218;-91
2023/05/31 02:00:31;;;;;;;13.05;8.70;;;12.50;99.90;;;;;;4158600;28;20698;-92
2023/05/31 02:02:34;;;;;;;12.10;8.38;;;12.50;99.90;;;;;;4176789;28;20176;-92
2023/05/31 02:04:35;;;;;;;14.45;9.10;;;12.50;99.90;;;;;;4158525;28;20168;-92
2023/05/31 02:06:39;;;;;;;15.13;9.10;;;12.50;99.90;;;;;;4173168;28;20204;-92
2023/05/31 02:08:42;;;;;;;10.52;8.32;;;12.50;99.90;;;;;;4171162;28;20176;-92
2023/05/31 02:10:43;;;;;;;13.48;8.73;;;12.50;99.90;;;;;;4157962;28;20176;-92
2023/05/31 02:12:50;;;;;;;10.02;8.77;;;12.50;99.90;;;;;;4177936;28;20163;-92
2023/05/31 02:15:30;;;;;;;13.50;8.98;;;12.50;99.90;;;;;;4176785;28;20692;-91
2023/05/31 02:17:52;;;;;;;11.50;8.90;;;12.50;99.90;;;;;;4176350;28;20334;-92
2023/05/31 02:19:53;;;;;;;15.38;9.55;;;12.40;99.90;;;;;;4174936;28;20199;-93
2023/05/31 02:21:57;;;;;;;12.20;8.80;;;12.40;99.90;;;;;;4155262;28;20193;-91
2023/05/31 02:24:03;;;;;;;10.35;9.20;;;12.40;99.90;;;;;;4187870;28;20201;-92
2023/05/31 02:26:04;;;;;;;11.68;9.07;;;12.40;99.90;;;;;;4169217;28;20207;-92
2023/05/31 02:28:08;;;;;;;13.40;9.18;;;12.40;99.90;;;;;;4157733;28;20545;-92
2023/05/31 02:30:11;;;;;;;11.73;9.10;;;12.40;99.90;;;;;;4157639;28;20173;-91
2023/05/31 02:32:12;;;;;;;12.82;9.55;;;12.40;99.90;;;;;;4174645;28;20168;-94
2023/05/31 02:34:15;;;;;;;14.82;9.95;;;12.40;99.90;;;;;;4177728;28;20176;-93
2023/05/31 02:36:21;;;;;;;12.52;9.20;;;12.40;99.90;;;;;;4197275;22;20729;-92
2023/05/31 02:38:26;;;;;;;15.25;9.98;;;12.40;99.90;;;;;;4191391;28;20260;-92
2023/05/31 02:40:34;;;;;;;13.05;9.57;;;12.40;99.90;;;;;;4189043;28;20160;-92
2023/05/31 02:42:38;;;;;;;14.63;10.07;;;12.40;99.90;;;;;;4174017;28;20184;-93
2023/05/31 02:44:47;;;;;;;15.27;10.45;;;12.40;99.90;;;;;;4189444;28;20152;-92
2023/05/31 02:46:52;;;;;;;12.82;9.80;;;12.30;99.90;;;;;;4174098;28;20204;-91
2023/05/31 02:49:02;;;;;;;14.60;9.93;;;12.30;99.90;;;;;;4189064;28;20175;-93
2023/05/31 02:51:03;;;;;;;15.07;9.82;;;12.30;99.90;;;;;;4191653;28;20599;-93
2023/05/31 02:53:44;;;;;;;11.23;9.18;;;12.30;99.90;;;;;;4183447;28;20218;-91
2023/05/31 02:56:08;;;;;;;14.03;9.97;;;12.30;99.90;;;;;;4191757;28;20187;-91
2023/05/31 02:58:52;;;;;;;12.15;9.82;;;12.30;99.90;;;;;;4188893;28;20686;-94
2023/05/31 03:01:08;;;;;;;12.48;9.82;;;12.30;99.90;;;;;;4204962;22;20174;-92
2023/05/31 03:03:18;;;;;;;13.85;10.05;;;12.30;99.90;;;;;;4173412;28;20617;-91
2023/05/31 03:05:33;;;;;;;12.00;10.07;;;12.30;99.90;;;;;;4191679;28;20731;-91
2023/05/31 03:07:34;;;;;;;12.85;10.60;;;12.30;99.90;;;;;;4172808;28;20181;-90
2023/05/31 03:09:40;;;;;;;12.55;10.60;;;12.30;99.90;;;;;;4178714;28;20156;-94
2023/05/31 03:11:47;;;;;;;13.03;10.77;;;12.20;99.90;;;;;;4176813;28;20194;-91
2023/05/31 03:13:55;;;;;;;13.32;9.65;;;12.20;99.90;;;;;;4173696;28;20179;-91
2023/05/31 03:16:03;;;;;;;16.60;10.38;;;12.20;99.90;;;;;;4194429;28;20699;-93
2023/05/31 03:18:04;;;;;;;16.15;9.98;;;12.30;99.90;;;;;;4174565;28;20233;-95
2023/05/31 03:20:14;;;;;;;12.65;10.35;;;12.20;99.90;;;;;;4191526;28;20187;-94
2023/05/31 03:22:31;;;;;;;14.30;10.33;;;12.20;99.90;;;;;;4195131;28;20230;-91
2023/05/31 03:24:33;;;;;;;15.02;10.38;;;12.30;99.90;;;;;;4180264;28;20172;-91
2023/05/31 03:26:39;;;;;;;17.10;10.77;;;12.30;99.90;;;;;;4195392;28;20282;-92
2023/05/31 03:28:47;;;;;;;17.30;10.23;;;12.20;99.90;;;;;;4177740;28;20168;-92
2023/05/31 03:30:51;;;;;;;14.67;11.13;;;12.20;99.90;;;;;;4178278;28;20181;-92
2023/05/31 03:32:57;;;;;;;18.90;11.70;;;12.10;99.90;;;;;;4191333;28;20210;-91
2023/05/31 03:34:59;;;;;;;14.60;11.77;;;12.20;99.90;;;;;;4179586;28;20179;-94
2023/05/31 03:39:33;;;;;;;17.27;12.50;;;12.10;99.90;;;;;;4183982;28;20231;-91
2023/05/31 03:41:38;;;;;;;18.10;11.93;;;12.10;99.90;;;;;;4194232;28;20179;-92
2023/05/31 03:44:09;;;;;;;15.73;11.38;;;12.10;99.90;;;;;;4177941;28;20172;-92
2023/05/31 03:46:23;;;;;;;17.42;12.13;;;12.00;99.90;;;;;;4176460;28;20204;-91
2023/05/31 03:48:29;;;;;;;18.42;12.15;;;12.00;99.90;;;;;;4161572;28;20230;-91
2023/05/31 03:50:32;;;;;;;16.88;12.30;;;12.10;99.90;;;;;;4161286;28;20184;-91
2023/05/31 03:52:38;;;;;;;15.97;11.90;;;12.10;99.90;;;;;;4160616;28;20212;-92
2023/05/31 03:54:42;;;;;;;21.40;11.63;;;12.10;99.90;;;;;;4164819;28;20176;-94
2023/05/31 03:56:47;;;;;;;16.40;12.20;;;12.10;99.90;;;;;;4176236;28;20207;-96
2023/05/31 03:59:02;;;;;;;16.70;11.93;;;12.10;99.90;;;;;;4178202;28;20191;-92
2023/05/31 04:01:04;;;;;;;17.17;12.23;;;12.00;99.90;;;;;;4178021;28;20168;-91
2023/05/31 04:03:11;;;;;;;15.60;12.50;;;12.00;99.90;;;;;;4160624;28;20161;-92
2023/05/31 04:05:21;;;;;;;16.98;12.27;;;12.00;99.90;;;;;;4178156;28;20535;-92
2023/05/31 04:07:24;;;;;;;16.00;12.50;;;12.00;99.90;;;;;;4163637;28;20229;-93
2023/05/31 04:09:28;;;;;;;20.10;13.00;;;12.00;99.90;;;;;;4181294;28;20172;-91
2023/05/31 04:11:32;;;;;;;21.15;12.93;;;11.90;99.90;;;;;;4161491;28;20632;-91
2023/05/31 04:13:33;;;;;;;16.33;12.63;;;11.90;99.90;;;;;;4159365;28;20196;-92
2023/05/31 04:15:35;;;;;;;15.50;12.68;;;11.90;99.90;;;;;;4177232;28;20184;-92
2023/05/31 04:17:38;;;;;;;16.17;12.25;;;12.00;99.90;;;;;;4177514;28;20167;-92
2023/05/31 04:19:45;;;;;;;17.75;12.52;;;12.00;99.90;;;;;;4159457;28;20255;-92
2023/05/31 04:21:56;;;;;;;19.70;12.30;;;12.00;99.90;;;;;;4177208;28;20166;-91
2023/05/31 04:23:57;;;;;;;15.10;11.93;;;12.00;99.90;;;;;;4160033;28;20185;-92
2023/05/31 04:26:00;;;;;;;17.60;12.53;;;12.00;99.90;;;;;;4159204;28;20609;-91
2023/05/31 04:28:05;;;;;;;18.13;11.50;;;12.00;99.90;;;;;;4177439;28;20228;-91
2023/05/31 04:30:07;;;;;;;14.38;12.00;;;12.10;99.90;;;;;;4175508;28;20165;-92
2023/05/31 04:32:16;;;;;;;14.77;12.25;;;12.20;99.90;;;;;;4175313;28;20255;-91
2023/05/31 04:34:20;;;;;;;18.15;12.98;;;12.20;99.90;;;;;;4174877;28;20230;-92
2023/05/31 04:36:26;;;;;;;16.85;12.18;;;12.30;99.90;;;;;;4162007;28;20222;-92
2023/05/31 04:38:32;;;;;;;15.77;11.57;;;12.20;99.90;;;;;;4176436;28;20208;-94
2023/05/31 04:40:40;;;;;;;15.17;12.67;;;12.20;99.90;;;;;;4174592;28;20528;-91
2023/05/31 04:42:45;;;;;;;19.83;13.00;;;12.20;99.90;;;;;;4176940;28;20168;-91
2023/05/31 04:45:09;;;;;;;16.92;11.95;;;12.20;99.90;;;;;;4173817;28;20206;-91
2023/05/31 04:47:19;;;;;;;16.98;12.43;;;12.20;99.90;;;;;;4171386;28;20219;-91
2023/05/31 04:49:24;;;;;;;18.52;12.65;;;12.20;99.90;;;;;;4159478;28;20672;-93
2023/05/31 04:51:30;;;;;;;15.57;11.63;;;12.20;99.90;;;;;;4159135;28;20146;-94
2023/05/31 04:53:32;;;;;;;19.08;13.48;;;12.20;99.90;;;;;;4157999;28;20168;-90
2023/05/31 04:55:35;;;;;;;14.80;12.38;;;12.20;99.90;;;;;;4174370;28;20176;-91
2023/05/31 04:57:44;;;;;;;17.05;12.70;;;12.30;99.90;;;;;;4174787;28;20179;-91
2023/05/31 04:59:53;;;;;;;15.90;12.32;;;12.30;99.90;;;;;;4174387;28;20635;-91
2023/05/31 05:01:53;;;;;;;17.23;12.93;;;12.30;99.90;;;;;;4158070;28;20248;-92
2023/05/31 05:04:02;;;;;;;16.37;12.67;;;12.40;99.90;;;;;;4155908;28;20153;-91
2023/05/31 05:06:16;;;;;;;17.10;12.70;;;12.40;99.90;;;;;;4171330;28;20180;-93
2023/05/31 05:08:17;;;;;;;17.98;12.90;;;12.40;99.90;;;;;;4166368;28;20164;-94
2023/05/31 05:10:19;;;;;;;17.33;12.82;;;12.40;99.90;;;;;;4150310;28;20206;-94
2023/05/31 05:12:20;;;;;;;17.52;13.05;;;12.50;99.90;;;;;;4166167;28;20676;-92
2023/05/31 05:14:21;;;;;;;20.45;13.65;;;12.50;99.90;;;;;;4166456;28;20176;-92
2023/05/31 05:16:22;;;;;;;16.45;12.00;;;12.60;99.90;;;;;;4150074;28;20189;-91
2023/05/31 05:18:23;;;;;;;20.88;12.63;;;12.60;99.90;;;;;;4166355;28;20230;-94
2023/05/31 05:20:24;;;;;;;20.33;12.93;;;12.70;99.90;;;;;;4150600;28;20169;-92
2023/05/31 05:22:26;;;;;;;20.20;12.70;;;12.60;99.90;;;;;;4166187;28;20326;-92
2023/05/31 05:24:27;;;;;;;16.42;11.80;;;12.70;99.90;;;;;;4166439;28;20164;-94
2023/05/31 05:26:28;;;;;;;22.55;14.48;;;12.70;99.90;;;;;;4149742;28;20709;-94
2023/05/31 05:28:29;;;;;;;19.67;12.60;;;12.70;99.90;;;;;;4165783;28;20153;-91
2023/05/31 05:30:30;;;;;;;16.13;12.27;;;12.80;99.90;;;;;;4149959;28;20180;-94
2023/05/31 05:32:31;;;;;;;19.33;12.82;;;12.80;99.90;;;;;;4149625;28;20176;-94
2023/05/31 05:34:33;;;;;;;17.95;12.75;;;12.90;99.90;;;;;;4150020;28;20231;-93
2023/05/31 05:36:34;;;;;;;18.00;12.85;;;12.90;99.90;;;;;;4148953;28;20173;-94
2023/05/31 05:38:35;;;;;;;18.63;13.23;;;13.10;99.90;;;;;;4149851;28;20208;-94
2023/05/31 05:40:36;;;;;;;17.55;12.20;;;13.20;99.90;;;;;;4149978;28;20169;-92
2023/05/31 05:42:37;;;;;;;17.33;12.18;;;13.10;99.90;;;;;;4150326;28;20227;-93
2023/05/31 05:44:38;;;;;;;17.33;13.27;;;13.10;99.90;;;;;;4149904;28;20168;-94
2023/05/31 05:46:38;;;;;;;19.85;13.27;;;13.20;99.90;;;;;;4150321;28;20235;-93
2023/05/31 05:48:39;;;;;;;18.88;13.10;;;13.20;99.90;;;;;;4152679;28;20172;-94
2023/05/31 05:50:40;;;;;;;22.27;12.82;;;13.20;99.90;;;;;;4149652;28;20176;-93
2023/05/31 05:52:41;;;;;;;20.38;13.00;;;13.20;99.90;;;;;;4165918;28;20290;-91
2023/05/31 05:54:42;;;;;;;19.60;13.40;;;13.30;99.90;;;;;;4149562;28;20177;-91
2023/05/31 05:56:43;;;;;;;18.45;12.20;;;13.40;99.90;;;;;;4149509;28;20251;-92
2023/05/31 05:58:46;;;;;;;18.88;12.20;;;13.30;99.90;;;;;;4165900;28;20216;-94
2023/05/31 06:00:50;;;;;;;17.60;12.38;;;13.40;99.90;;;;;;4166139;28;20247;-94
2023/05/31 06:02:51;;;;;;;18.08;13.40;;;13.50;99.90;;;;;;4165398;28;20580;-90
2023/05/31 06:04:52;;;;;;;16.15;12.75;;;13.60;99.90;;;;;;4149471;28;20217;-93
2023/05/31 06:06:53;;;;;;;18.70;12.95;;;13.70;99.90;;;;;;4149096;28;20201;-92
2023/05/31 06:08:54;;;;;;;19.70;12.57;;;13.70;99.90;;;;;;4166075;28;20168;-93
2023/05/31 06:10:54;;;;;;;16.80;12.88;;;13.70;99.90;;;;;;4165714;28;20533;-94
2023/05/31 06:12:56;;;;;;;17.08;12.57;;;13.80;99.90;;;;;;4166171;28;20168;-92
2023/05/31 06:14:57;;;;;;;15.15;12.32;;;14.00;99.90;;;;;;4165418;28;20168;-90
2023/05/31 06:16:58;;;;;;;20.42;12.57;;;14.10;99.90;;;;;;4165573;28;20199;-93
2023/05/31 06:18:59;;;;;;;21.95;12.25;;;14.20;99.90;;;;;;4165613;28;20731;-95
2023/05/31 06:21:00;;;;;;;15.07;11.63;;;14.20;99.90;;;;;;4149794;28;20172;-93
2023/05/31 06:23:01;;;;;;;22.35;12.45;;;14.40;99.90;;;;;;4148873;28;20181;-92
2023/05/31 06:25:02;;;;;;;14.73;12.30;;;14.50;99.90;;;;;;4149372;28;20169;-95
2023/05/31 06:27:04;;;;;;;18.88;12.35;;;14.40;99.90;;;;;;4148755;28;20192;-95
2023/05/31 06:29:09;;;;;;;16.85;12.48;;;14.50;99.90;;;;;;4166265;28;20172;-94
2023/05/31 06:31:33;;;;;;;19.95;11.65;;;14.60;99.90;;;;;;4162901;28;20176;-93
2023/05/31 06:33:34;;;;;;;15.82;11.90;;;14.80;99.90;;;;;;4149936;28;20179;-94
2023/05/31 06:35:35;;;;;;;18.30;11.38;;;14.90;99.90;;;;;;4150112;28;20208;-93
2023/05/31 06:37:37;;;;;;;16.38;11.93;;;15.10;99.90;;;;;;4165916;28;20192;-93
2023/05/31 06:39:38;;;;;;;16.50;11.45;;;15.10;99.90;;;;;;4182488;28;20605;-95
2023/05/31 06:41:40;;;;;;;15.63;11.60;;;15.00;99.90;;;;;;4166611;28;20648;-95
2023/05/31 06:44:04;;;;;;;20.38;11.63;;;15.00;99.90;;;;;;4163128;28;20180;-93
2023/05/31 06:46:15;;;;;;;23.52;11.95;;;15.10;99.90;;;;;;4151446;28;20184;-90
2023/05/31 06:48:48;;;;;;;28.38;12.32;;;15.20;99.90;;;;;;4171949;28;20251;-94
2023/05/31 06:51:22;;;;;;;18.08;10.88;;;15.30;99.90;;;;;;4161661;28;20180;-92
2023/05/31 06:53:42;;;;;;;16.60;10.07;;;15.50;99.90;;;;;;4178912;28;20662;-92
2023/05/31 06:55:55;;;;;;;16.95;11.02;;;15.50;99.90;;;;;;4152572;28;20185;-93
2023/05/31 06:57:57;;;;;;;20.20;11.30;;;15.50;99.90;;;;;;4150509;28;20205;-95
2023/05/31 06:59:58;;;;;;;20.50;11.45;;;15.60;99.90;;;;;;4152034;28;20259;-94
2023/05/31 07:01:59;;;;;;;15.80;11.25;;;15.60;99.90;;;;;;4149285;28;20652;-93
2023/05/31 07:04:00;;;;;;;16.08;10.95;;;15.70;99.90;;;;;;4149627;28;20168;-93
2023/05/31 07:06:01;;;;;;;16.13;11.02;;;15.70;99.90;;;;;;4167242;28;20192;-93
2023/05/31 07:08:02;;;;;;;16.15;10.77;;;15.70;99.90;;;;;;4152854;28;20169;-93
2023/05/31 07:10:05;;;;;;;19.50;10.63;;;16.00;99.90;;;;;;4166168;28;20239;-92
2023/05/31 07:12:06;;;;;;;17.80;10.05;;;16.70;99.90;;;;;;4166696;28;20260;-96
2023/05/31 07:14:09;;;;;;;12.88;9.55;;;17.70;99.90;;;;;;4165882;28;20219;-93
2023/05/31 07:16:10;;;;;;;13.05;8.90;;;18.30;99.90;;;;;;4150115;28;20549;-94
2023/05/31 07:18:11;;;;;;;13.32;8.77;;;18.70;99.90;;;;;;4151445;28;20216;-93
2023/05/31 07:20:11;;;;;;;12.32;9.07;;;19.10;99.90;;;;;;4149374;28;20173;-93
2023/05/31 07:22:14;;;;;;;12.98;8.82;;;19.20;99.90;;;;;;4149406;28;20169;-92
2023/05/31 07:24:15;;;;;;;14.85;9.23;;;19.20;99.90;;;;;;4149261;28;20315;-94
2023/05/31 07:26:16;;;;;;;14.52;8.48;;;19.20;99.90;;;;;;4148870;28;20197;-95
2023/05/31 07:28:17;;;;;;;13.93;8.90;;;19.30;99.90;;;;;;4151352;28;20177;-93
2023/05/31 07:30:20;;;;;;;17.17;8.70;;;19.50;99.90;;;;;;4165647;28;20206;-95
2023/05/31 07:32:21;;;;;;;13.93;9.18;;;19.60;99.90;;;;;;4166741;28;20164;-93
2023/05/31 07:34:22;;;;;;;16.80;8.57;;;19.80;99.90;;;;;;4182109;28;20267;-92
2023/05/31 07:36:24;;;;;;;14.23;9.00;;;19.90;99.90;;;;;;4151259;28;20197;-90
2023/05/31 07:38:25;;;;;;;12.07;8.68;;;20.10;99.90;;;;;;4150478;28;20200;-92
2023/05/31 07:40:26;;;;;;;13.65;9.23;;;20.10;99.90;;;;;;4149833;28;20684;-95
2023/05/31 07:42:28;;;;;;;23.00;8.98;;;20.60;99.90;;;;;;4148679;28;20260;-96
2023/05/31 07:44:29;;;;;;;13.07;8.32;;;20.70;99.90;;;;;;4149989;28;20275;-94
2023/05/31 07:46:29;;;;;;;12.68;8.18;;;21.10;99.90;;;;;;4149433;28;20192;-95
2023/05/31 07:48:33;;;;;;;13.35;7.93;;;21.00;99.90;;;;;;4150956;28;20169;-93
2023/05/31 07:50:33;;;;;;;12.48;8.30;;;20.90;99.90;;;;;;4167023;28;20172;-94
2023/05/31 07:52:34;;;;;;;34.42;13.18;;;20.60;99.90;;;;;;4164946;28;20168;-92
2023/05/31 07:54:35;;;;;;;17.45;9.00;;;20.50;99.90;;;;;;4166792;28;20164;-95
2023/05/31 07:56:36;;;;;;;14.10;8.35;;;20.70;99.90;;;;;;4166097;28;20195;-95
2023/05/31 07:58:37;;;;;;;13.77;9.13;;;20.80;99.90;;;;;;4164895;28;20250;-95
2023/05/31 08:00:38;;;;;;;14.30;8.85;;;20.90;99.90;;;;;;4166461;28;20180;-93
2023/05/31 08:02:41;;;;;;;17.65;8.70;;;21.10;99.90;;;;;;4151529;28;20173;-94
2023/05/31 08:04:43;;;;;;;16.23;9.20;;;21.20;99.90;;;;;;4168278;28;20502;-92
2023/05/31 08:06:45;;;;;;;13.90;8.50;;;21.40;99.90;;;;;;4169905;28;20184;-95
2023/05/31 08:08:46;;;;;;;14.38;9.40;;;21.60;99.90;;;;;;4151161;28;20173;-94
2023/05/31 08:10:47;;;;;;;16.52;8.90;;;21.70;99.90;;;;;;4168177;28;20222;-92
2023/05/31 08:12:47;;;;;;;13.48;8.55;;;21.50;99.90;;;;;;4167248;28;20633;-94
2023/05/31 08:14:48;;;;;;;16.85;8.63;;;21.40;99.90;;;;;;4151113;28;20176;-92
2023/05/31 08:16:50;;;;;;;14.35;8.52;;;21.60;99.90;;;;;;4167495;28;20188;-94
2023/05/31 08:18:51;;;;;;;15.10;8.40;;;21.70;99.90;;;;;;4151190;28;20299;-91
2023/05/31 08:20:52;;;;;;;13.68;8.75;;;21.70;99.90;;;;;;4167121;28;20168;-91
2023/05/31 08:22:53;;;;;;;15.32;8.70;;;21.70;99.90;;;;;;4150975;28;20208;-92
2023/05/31 08:24:54;;;;;;;12.27;7.97;;;21.90;99.90;;;;;;4150949;28;20252;-94
2023/05/31 08:26:56;;;;;;;16.33;8.85;;;21.70;99.90;;;;;;4150716;28;20189;-94
2023/05/31 08:28:56;;;;;;;12.57;8.00;;;21.50;99.90;;;;;;4150480;28;20173;-92
2023/05/31 08:30:57;;;;;;;18.63;7.75;;;21.60;99.90;;;;;;4166992;28;20206;-92
2023/05/31 08:32:58;;;;;;;17.10;8.18;;;21.80;99.90;;;;;;4150866;28;20324;-91
2023/05/31 08:34:58;;;;;;;15.82;8.35;;;22.20;99.90;;;;;;4150853;28;20650;-93
2023/05/31 08:36:59;;;;;;;14.65;8.38;;;22.50;99.90;;;;;;4151351;28;20258;-96
2023/05/31 08:39:00;;;;;;;17.80;8.23;;;22.20;99.90;;;;;;4166978;28;20254;-94
2023/05/31 08:41:02;;;;;;;16.10;7.90;;;22.10;99.90;;;;;;4166831;28;20172;-91
2023/05/31 08:43:15;;;;;;;13.68;7.72;;;22.30;99.90;;;;;;4150730;28;20720;-93
2023/05/31 08:45:17;;;;;;;14.90;7.97;;;22.50;99.90;;;;;;4150707;28;20175;-92
2023/05/31 08:47:31;;;;;;;14.50;8.18;;;22.60;99.90;;;;;;4150622;28;20171;-93
2023/05/31 08:49:34;;;;;;;14.98;8.50;;;22.40;99.90;;;;;;4150980;28;20641;-93
2023/05/31 08:51:36;;;;;;;16.73;8.82;;;22.30;99.90;;;;;;4150522;28;20177;-95
2023/05/31 08:53:38;;;;;;;13.48;6.78;;;22.80;99.90;;;;;;4166834;28;20186;-94
2023/05/31 08:55:40;;;;;;;17.33;7.80;;;23.00;99.90;;;;;;4150106;28;20621;-93
2023/05/31 08:57:41;;;;;;;12.77;7.65;;;23.10;99.90;;;;;;4166847;28;20180;-92
2023/05/31 08:59:43;;;;;;;16.33;8.68;;;23.00;99.90;;;;;;4167841;28;20176;-90
2023/05/31 09:01:46;;;;;;;13.75;7.70;;;22.60;99.90;;;;;;4166747;28;20285;-91
2023/05/31 09:03:47;;;;;;;12.40;7.32;;;22.60;99.90;;;;;;4167031;28;20167;-94
2023/05/31 09:05:48;;;;;;;15.35;7.68;;;22.60;99.90;;;;;;4166362;28;20219;-91
2023/05/31 09:07:49;;;;;;;17.90;7.88;;;22.80;99.90;;;;;;4166730;28;20234;-92
2023/05/31 09:09:50;;;;;;;16.83;7.95;;;22.60;99.90;;;;;;4150593;28;20173;-91
2023/05/31 09:11:51;;;;;;;12.68;6.95;;;22.50;99.90;;;;;;4149630;28;20173;-91
2023/05/31 09:13:52;;;;;;;14.00;7.15;;;22.50;99.90;;;;;;4150516;28;20180;-95
2023/05/31 09:15:53;;;;;;;17.38;7.20;;;22.50;99.90;;;;;;4151409;28;20290;-92
2023/05/31 09:17:57;;;;;;;11.63;7.22;;;22.80;99.90;;;;;;4171606;28;20172;-92
2023/05/31 09:20:00;;;;;;;18.88;7.90;;;23.00;99.90;;;;;;4184874;28;20161;-93
2023/05/31 09:22:03;;;;;;;12.63;7.43;;;23.30;99.90;;;;;;4175490;28;20182;-95
2023/05/31 09:24:04;;;;;;;12.70;6.80;;;23.20;99.90;;;;;;4166333;28;20249;-92
2023/05/31 09:26:07;;;;;;;18.45;7.05;;;23.20;99.90;;;;;;4150041;28;20193;-92
2023/05/31 09:28:08;;;;;;;14.57;7.25;;;23.30;99.90;;;;;;4166221;28;20164;-92
2023/05/31 09:30:11;;;;;;;14.48;7.30;;;23.40;99.90;;;;;;4166579;28;20180;-94
2023/05/31 09:32:11;;;;;;;16.08;7.25;;;23.60;99.90;;;;;;4150153;28;20168;-95
2023/05/31 09:34:32;;;;;;;13.65;7.22;;;23.90;99.90;;;;;;4165883;28;20194;-95
2023/05/31 09:36:34;;;;;;;15.52;6.97;;;24.30;99.90;;;;;;4149724;28;20197;-91
2023/05/31 09:38:36;;;;;;;13.63;6.90;;;24.50;99.90;;;;;;4149852;28;20216;-92
2023/05/31 09:40:37;;;;;;;14.80;6.60;;;24.10;99.90;;;;;;4166512;28;20259;-91
2023/05/31 09:42:38;;;;;;;14.23;6.72;;;23.70;99.90;;;;;;4166653;28;20176;-90
2023/05/31 09:44:38;;;;;;;9.68;6.30;;;23.50;99.90;;;;;;4149698;28;20634;-92
2023/05/31 09:46:39;;;;;;;12.82;6.57;;;23.80;99.90;;;;;;4166032;28;20211;-93
2023/05/31 09:48:40;;;;;;;12.40;6.95;;;24.20;99.90;;;;;;4150870;28;20887;-95
2023/05/31 09:50:41;;;;;;;13.00;5.88;;;24.20;99.90;;;;;;4166429;28;20192;-92
2023/05/31 09:52:49;;;;;;;11.02;6.05;;;24.40;99.90;;;;;;4166221;28;20321;-91
2023/05/31 09:54:50;;;;;;;14.68;6.32;;;24.50;99.90;;;;;;4167046;28;20552;-92
2023/05/31 09:56:52;;;;;;;18.75;6.22;;;24.10;99.90;;;;;;4149770;28;20185;-92
2023/05/31 09:58:56;;;;;;;15.70;6.28;;;23.90;99.90;;;;;;4150761;28;20266;-92
2023/05/31 10:01:00;;;;;;;15.10;5.88;;;24.10;99.90;;;;;;4166792;28;20656;-95
2023/05/31 10:03:02;;;;;;;12.25;5.65;;;24.40;99.90;;;;;;4166397;28;20183;-94
2023/05/31 10:05:05;;;;;;;10.77;5.63;;;24.90;99.90;;;;;;4166002;28;20172;-92
2023/05/31 10:07:07;;;;;;;15.07;6.22;;;25.50;99.90;;;;;;4166517;28;20211;-93
2023/05/31 10:09:07;;;;;;;14.60;5.80;;;25.10;99.90;;;;;;4167338;28;20164;-94
2023/05/31 10:11:12;;;;;;;12.35;5.97;;;24.70;99.90;;;;;;4165948;28;20180;-92
2023/05/31 10:13:17;;;;;;;14.40;6.50;;;24.50;99.90;;;;;;4149701;28;20505;-94
2023/05/31 10:15:23;;;;;;;14.52;6.60;;;24.40;99.90;;;;;;4166461;28;20642;-93
2023/05/31 10:17:28;;;;;;;12.00;5.68;;;24.50;99.90;;;;;;4166319;28;20172;-93
2023/05/31 10:19:37;;;;;;;15.48;6.05;;;24.40;99.90;;;;;;4152027;28;20216;-96
2023/05/31 10:21:42;;;;;;;10.88;5.75;;;24.30;99.90;;;;;;4149743;28;20661;-92
2023/05/31 10:23:57;;;;;;;13.15;5.13;;;24.10;99.90;;;;;;4165902;28;20176;-96
2023/05/31 10:26:20;;;;;;;12.23;5.90;;;24.00;99.90;;;;;;4150742;28;20193;-95
2023/05/31 10:28:27;;;;;;;12.55;5.13;;;23.70;99.90;;;;;;4150611;28;20196;-93
2023/05/31 10:30:32;;;;;;;16.27;5.95;;;23.40;99.90;;;;;;4149008;28;20255;-93
2023/05/31 10:32:40;;;;;;;19.02;5.43;;;23.30;99.90;;;;;;4150053;28;20184;-90
2023/05/31 10:34:41;;;;;;;15.15;5.18;;;23.20;99.90;;;;;;4166144;28;20199;-91
2023/05/31 10:36:42;;;;;;;17.38;5.57;;;23.20;99.90;;;;;;4165431;28;20195;-94
2023/05/31 10:38:55;;;;;;;14.20;5.63;;;23.00;99.90;;;;;;4150044;28;20581;-93
2023/05/31 10:41:09;;;;;;;10.90;5.50;;;22.90;99.90;;;;;;4149855;28;20173;-91
2023/05/31 10:43:24;;;;;;;14.85;5.88;;;23.10;99.90;;;;;;4149606;28;20172;-93
2023/05/31 10:45:46;;;;;;;11.18;4.97;;;23.00;99.90;;;;;;4167502;28;20185;-93